Huvudsida
METAR-TAF:

METAR-TAF

Flygplatser :

Inverness Dalcross Airport

Inverness, Skottland

latitud: 57-32N, longitud: 004-03W, höjd: 9 m

Aktuellt väderrapport

Denna rapport gjordes för 31 minuter sedan, klockan 16:20 UTC
Vind 9 kt från väst/sydväst
Temperatur 10°C
Fuktighet 62%
Tryck 1032 hPa
Sikt 10 km eller mer
Få moln på en höjd av 2000 ft
Brutna moln på en höjd av 4500 ft

METAR: EGPE 251620Z 25009KT 9999 FEW020 BKN045 10/03 Q1032

Tid: 16:51 (16:51 UTC)

Väderprognos

Denna rapport gjordes för 2 timmar och 53 minuter sedan, klockan 13:58 UTC
Prognos gäller från 25 kl. 15 UTC till 25 kl. 24 UTC
Vind 12 kt från väst/sydväst
Sikt 10 km eller mer
Få moln på en höjd av 2000 ft
Brutna moln på en höjd av 3500 ft

TAF: EGPE 251358Z 2515/2524 24012KT 9999 FEW020 BKN035

Aktuella väderrapporter och prognoser från 4000 flygplatser (METAR- och TAF-rapporter).

De tillgängliga stationerna syns som gula och röda prickar på kartan.

För musen över prickarna för att se namnen på stationerna.

Klicka sedan för att få väderrapporter och prognoser.

För att ändra kartan: Klicka på de gröna knapparna med ett svart kors på för att zooma in; den gröna knappen med ett streck på för att zooma ut; eller på de gröna pilarna för angränsande kartor.


METAR-TAF: